createdAt,value
2022-12-20T00:00:19.691Z,24.50
2022-12-20T00:04:23.220Z,23.40
2022-12-20T00:08:26.870Z,22.60
2022-12-20T00:12:32.565Z,26.50
2022-12-20T00:16:43.340Z,21.10
2022-12-20T00:20:51.592Z,23.77
2022-12-20T00:24:57.690Z,26.37
2022-12-20T00:29:06.246Z,27.63
2022-12-20T00:33:11.822Z,27.93
2022-12-20T00:37:18.187Z,23.83
2022-12-20T00:41:25.096Z,28.97
2022-12-20T00:45:32.692Z,23.10
2022-12-20T00:49:37.743Z,26.27
2022-12-20T00:53:43.755Z,25.07
2022-12-20T00:57:50.584Z,22.20
2022-12-20T01:02:01.860Z,24.97
2022-12-20T01:06:08.021Z,22.57
2022-12-20T01:10:20.220Z,25.53
2022-12-20T01:14:28.016Z,23.17
2022-12-20T01:18:36.138Z,24.50
2022-12-20T01:22:47.503Z,23.03
2022-12-20T01:26:51.463Z,24.57
2022-12-20T01:30:57.074Z,26.90
2022-12-20T01:35:02.173Z,24.03
2022-12-20T01:39:09.871Z,25.40
2022-12-20T01:43:17.885Z,24.83
2022-12-20T01:47:22.336Z,23.70
2022-12-20T01:51:31.413Z,27.20
2022-12-20T01:55:38.814Z,26.00
2022-12-20T01:59:47.521Z,27.00
2022-12-20T02:03:54.645Z,23.97
2022-12-20T02:08:09.255Z,27.03
2022-12-20T02:12:18.127Z,23.33
2022-12-20T02:16:27.424Z,28.00
2022-12-20T02:21:12.645Z,23.37
2022-12-20T02:25:46.089Z,22.20
2022-12-20T02:30:18.674Z,26.17
2022-12-20T02:34:28.701Z,29.23
2022-12-20T02:38:41.130Z,25.17
2022-12-20T02:42:48.807Z,25.27
2022-12-20T02:46:59.105Z,26.63
2022-12-20T02:51:05.871Z,24.30
2022-12-20T02:55:10.197Z,27.03
2022-12-20T02:59:17.803Z,26.40
2022-12-20T03:03:26.469Z,24.53
2022-12-20T03:07:30.917Z,27.20
2022-12-20T03:11:36.838Z,26.70
2022-12-20T03:16:26.190Z,25.60
2022-12-20T03:20:34.023Z,24.97
2022-12-20T03:24:37.526Z,24.30
2022-12-20T03:28:41.037Z,26.60
2022-12-20T03:32:44.512Z,26.53
2022-12-20T03:36:50.176Z,26.60
2022-12-20T03:40:53.604Z,23.20
2022-12-20T03:44:57.780Z,25.27
2022-12-20T03:49:03.475Z,24.40
2022-12-20T03:53:08.581Z,26.43
2022-12-20T03:57:12.006Z,23.17
2022-12-20T04:01:21.659Z,25.80
2022-12-20T04:05:27.008Z,25.90
2022-12-20T04:09:34.124Z,26.60
2022-12-20T04:13:37.755Z,28.00
2022-12-20T04:17:41.792Z,24.47
2022-12-20T04:21:46.817Z,26.40
2022-12-20T04:25:53.288Z,27.17
2022-12-20T04:29:59.200Z,26.13
2022-12-20T04:34:04.264Z,26.27
2022-12-20T04:38:07.870Z,26.57
2022-12-20T04:42:15.324Z,24.50
2022-12-20T04:46:20.724Z,25.30
2022-12-20T04:50:24.002Z,23.73
2022-12-20T04:54:28.077Z,23.17
2022-12-20T04:58:32.985Z,27.53
2022-12-20T05:02:36.339Z,26.57
2022-12-20T05:06:39.698Z,25.30
2022-12-20T05:10:44.022Z,27.93
2022-12-20T05:14:48.620Z,26.43
2022-12-20T05:18:51.953Z,25.97
2022-12-20T05:23:12.905Z,27.07
2022-12-20T05:27:16.149Z,23.80
2022-12-20T05:31:21.069Z,27.37
2022-12-20T05:35:24.389Z,25.77
2022-12-20T05:39:28.170Z,26.23
2022-12-20T05:43:31.589Z,25.27
2022-12-20T05:47:36.203Z,26.50
2022-12-20T05:51:41.705Z,26.87
2022-12-20T05:55:46.493Z,26.87
2022-12-20T05:59:49.853Z,24.10
2022-12-20T06:03:54.536Z,25.17
2022-12-20T06:07:58.538Z,29.00
2022-12-20T06:12:01.875Z,29.23
2022-12-20T06:16:06.198Z,28.33
2022-12-20T06:20:13.478Z,28.50
2022-12-20T06:24:16.839Z,28.80
2022-12-20T06:28:22.225Z,24.20
2022-12-20T06:32:25.585Z,29.57
2022-12-20T06:36:30.221Z,26.13
2022-12-20T06:40:33.590Z,30.50
2022-12-20T06:44:36.832Z,24.00
2022-12-20T06:48:40.157Z,25.80
2022-12-20T06:52:44.775Z,26.90
2022-12-20T06:56:48.082Z,25.87
2022-12-20T07:00:51.352Z,26.07
2022-12-20T07:04:54.724Z,26.63
2022-12-20T07:08:59.334Z,24.80
2022-12-20T07:13:02.756Z,26.17
2022-12-20T07:17:07.691Z,25.10
2022-12-20T07:21:11.278Z,27.57
2022-12-20T07:25:16.309Z,31.50
2022-12-20T07:29:19.536Z,26.33
2022-12-20T07:33:25.788Z,27.60
2022-12-20T07:37:31.003Z,29.03
2022-12-20T07:41:36.210Z,26.20
2022-12-20T07:45:40.419Z,25.17
2022-12-20T07:49:43.883Z,23.90
2022-12-20T07:53:50.080Z,25.17
2022-12-20T07:58:07.189Z,26.27
2022-12-20T08:02:14.449Z,26.07
2022-12-20T08:06:20.043Z,27.60
2022-12-20T08:10:23.488Z,30.33
2022-12-20T08:14:30.439Z,30.40
2022-12-20T08:18:33.873Z,24.77
2022-12-20T08:22:37.112Z,25.20
2022-12-20T08:26:41.828Z,24.30
2022-12-20T08:30:46.835Z,29.60
2022-12-20T08:34:50.324Z,26.40
2022-12-20T08:38:53.558Z,23.47
2022-12-20T08:42:57.903Z,25.10
2022-12-20T08:47:02.525Z,24.50
2022-12-20T08:51:08.179Z,21.90
2022-12-20T08:55:13.077Z,24.17
2022-12-20T08:59:16.778Z,23.30
2022-12-20T09:03:21.564Z,24.00
2022-12-20T09:07:25.048Z,25.17
2022-12-20T09:11:28.748Z,28.47
2022-12-20T09:15:32.271Z,26.40
2022-12-20T09:19:38.083Z,28.00
2022-12-20T09:23:41.557Z,24.30
2022-12-20T09:27:45.206Z,25.43
2022-12-20T09:31:50.408Z,24.00
2022-12-20T09:35:55.228Z,27.30
2022-12-20T09:39:58.478Z,23.57
2022-12-20T09:44:06.737Z,24.43
2022-12-20T09:48:18.186Z,20.73
2022-12-20T09:52:45.140Z,23.43
2022-12-20T09:56:58.149Z,26.43
2022-12-20T10:01:18.973Z,22.70
2022-12-20T10:05:41.234Z,24.27
2022-12-20T10:09:59.069Z,23.20
2022-12-20T10:14:10.262Z,26.60
2022-12-20T10:18:40.662Z,23.00
2022-12-20T10:22:50.429Z,25.87
2022-12-20T10:26:55.720Z,24.33
2022-12-20T10:31:04.705Z,24.30
2022-12-20T10:35:23.799Z,22.60
2022-12-20T10:39:43.302Z,25.10
2022-12-20T10:43:50.702Z,22.00
2022-12-20T10:48:01.004Z,24.30
2022-12-20T10:52:13.026Z,21.83
2022-12-20T10:56:22.156Z,23.97
2022-12-20T11:00:33.436Z,22.30
2022-12-20T11:04:38.719Z,24.47
2022-12-20T11:08:51.177Z,22.77
2022-12-20T11:12:56.820Z,23.87
2022-12-20T11:17:06.618Z,24.93
2022-12-20T11:21:27.713Z,21.47
2022-12-20T11:25:45.510Z,22.33
2022-12-20T11:30:07.464Z,26.97
2022-12-20T11:34:28.993Z,20.90
2022-12-20T11:38:42.089Z,26.17
2022-12-20T11:43:00.229Z,24.83
2022-12-20T11:47:25.278Z,24.20
2022-12-20T11:51:40.627Z,18.90
2022-12-20T11:55:48.496Z,21.80
2022-12-20T11:59:56.027Z,22.90
2022-12-20T12:04:12.592Z,21.10
2022-12-20T12:08:21.286Z,21.10
2022-12-20T12:12:28.158Z,22.30
2022-12-20T12:16:36.227Z,29.37
2022-12-20T12:20:50.917Z,22.40
2022-12-20T12:24:59.515Z,22.17
2022-12-20T12:29:05.364Z,23.07
2022-12-20T12:33:22.140Z,23.73
2022-12-20T12:37:50.046Z,23.90
2022-12-20T12:42:14.274Z,22.77
2022-12-20T12:46:20.488Z,19.63
2022-12-20T12:50:29.537Z,21.80
2022-12-20T12:54:38.774Z,22.17
2022-12-20T12:58:48.678Z,25.70
2022-12-20T13:02:53.481Z,20.87
2022-12-20T13:07:03.492Z,22.13
2022-12-20T13:11:29.672Z,21.80
2022-12-20T13:16:11.037Z,22.37
2022-12-20T13:20:21.408Z,21.10
2022-12-20T13:24:37.892Z,20.43
2022-12-20T13:28:47.663Z,18.67
2022-12-20T13:33:26.696Z,24.00
2022-12-20T13:37:54.514Z,20.50
2022-12-20T13:42:16.329Z,19.97
2022-12-20T13:46:26.060Z,18.00
2022-12-20T13:50:35.750Z,25.27
2022-12-20T13:54:43.316Z,19.63
2022-12-20T13:58:48.260Z,22.40
2022-12-20T14:02:51.723Z,21.47
2022-12-20T14:07:01.231Z,23.60
2022-12-20T14:11:12.542Z,19.63
2022-12-20T14:15:24.490Z,20.00
2022-12-20T14:19:27.932Z,21.00
2022-12-20T14:23:42.612Z,21.47
2022-12-20T14:27:46.719Z,22.80
2022-12-20T14:31:51.270Z,25.43
2022-12-20T14:35:54.862Z,20.50
2022-12-20T14:40:02.903Z,22.07
2022-12-20T14:44:17.785Z,23.80
2022-12-20T14:48:21.594Z,22.47
2022-12-20T14:52:31.417Z,24.90
2022-12-20T14:56:36.176Z,23.77
2022-12-20T15:00:40.046Z,20.53
2022-12-20T15:04:43.337Z,24.63
2022-12-20T15:08:46.573Z,22.40
2022-12-20T15:12:51.667Z,21.50
2022-12-20T15:17:00.014Z,24.73
2022-12-20T15:21:08.695Z,22.50
2022-12-20T15:25:20.515Z,23.63
2022-12-20T15:29:34.176Z,21.40
2022-12-20T15:33:42.337Z,24.07
2022-12-20T15:37:46.129Z,24.07
2022-12-20T15:41:51.182Z,23.60
2022-12-20T15:45:56.358Z,25.47
2022-12-20T15:49:59.803Z,23.27
2022-12-20T15:54:06.837Z,21.33
2022-12-20T15:58:10.813Z,22.70
2022-12-20T16:02:24.038Z,24.10
2022-12-20T16:06:27.493Z,23.17
2022-12-20T16:10:30.942Z,24.13
2022-12-20T16:14:34.223Z,22.73
2022-12-20T16:18:38.935Z,25.30
2022-12-20T16:22:42.487Z,24.87
2022-12-20T16:26:56.581Z,23.80
2022-12-20T16:31:27.303Z,22.30
2022-12-20T16:35:34.003Z,23.47
2022-12-20T16:39:37.299Z,22.27
2022-12-20T16:43:40.851Z,23.77
2022-12-20T16:47:44.280Z,22.80
2022-12-20T16:51:50.908Z,23.47
2022-12-20T16:55:56.743Z,24.90
2022-12-20T17:00:12.827Z,26.10
2022-12-20T17:04:19.612Z,22.50
2022-12-20T17:12:56.906Z,24.63
2022-12-20T17:17:05.851Z,21.57
2022-12-20T17:21:27.067Z,24.17
2022-12-20T17:25:38.055Z,23.83
2022-12-20T17:29:48.163Z,28.53
2022-12-20T17:34:06.963Z,22.60
2022-12-20T17:38:15.224Z,22.80
2022-12-20T17:42:31.754Z,20.17
2022-12-20T17:46:37.880Z,24.60
2022-12-20T17:51:01.563Z,21.70
2022-12-20T17:55:08.480Z,22.13
2022-12-20T17:59:18.120Z,21.23
2022-12-20T18:04:02.277Z,19.90
2022-12-20T18:07:55.231Z,21.13
2022-12-20T18:11:59.986Z,19.40
2022-12-20T18:16:19.236Z,22.10
2022-12-20T18:20:27.095Z,21.27
2022-12-20T18:24:38.003Z,21.10
2022-12-20T18:28:55.275Z,24.00
2022-12-20T18:33:04.984Z,22.23
2022-12-20T18:37:15.682Z,19.60
2022-12-20T18:41:25.939Z,21.23
2022-12-20T18:45:32.909Z,22.30
2022-12-20T18:49:39.584Z,18.97
2022-12-20T18:53:48.511Z,19.57
2022-12-20T18:58:00.723Z,22.17
2022-12-20T19:02:08.592Z,21.27
2022-12-20T19:06:33.522Z,22.30
2022-12-20T19:10:45.270Z,18.93
2022-12-20T19:14:56.259Z,18.77
2022-12-20T19:19:07.245Z,18.37
2022-12-20T19:23:19.125Z,15.20
2022-12-20T19:27:32.427Z,17.33
2022-12-20T19:31:43.071Z,16.10
2022-12-20T19:35:56.254Z,14.17
2022-12-20T19:40:12.963Z,14.97
2022-12-20T19:44:28.472Z,15.03
2022-12-20T19:48:46.533Z,17.03
2022-12-20T19:52:55.461Z,16.00
2022-12-20T19:57:07.975Z,15.40
2022-12-20T20:01:23.018Z,15.70
2022-12-20T20:05:36.831Z,14.90
2022-12-20T20:09:58.675Z,17.47
2022-12-20T20:14:28.665Z,18.20
2022-12-20T20:18:40.195Z,18.13
2022-12-20T20:22:50.092Z,17.37
2022-12-20T20:27:02.668Z,15.13
2022-12-20T20:31:15.906Z,18.20
2022-12-20T20:35:21.562Z,19.63
2022-12-20T20:39:30.976Z,20.13
2022-12-20T20:43:43.091Z,16.50
2022-12-20T20:47:50.773Z,18.90
2022-12-20T20:52:04.042Z,19.27
2022-12-20T20:56:12.951Z,19.07
2022-12-20T21:00:20.378Z,19.00
2022-12-20T21:04:36.659Z,21.87
2022-12-20T21:08:45.160Z,18.43
2022-12-20T21:13:00.322Z,17.90
2022-12-20T21:17:15.140Z,19.80
2022-12-20T21:21:30.449Z,19.40
2022-12-20T21:25:48.144Z,20.60
2022-12-20T21:29:55.258Z,19.97
2022-12-20T21:34:00.987Z,17.47
2022-12-20T21:38:19.310Z,18.37
2022-12-20T21:42:26.636Z,16.90
2022-12-20T21:46:36.785Z,16.03
2022-12-20T21:50:43.619Z,16.37
2022-12-20T21:54:52.458Z,17.80
2022-12-20T21:59:03.906Z,16.80
2022-12-20T22:03:12.591Z,15.13
2022-12-20T22:07:30.471Z,15.10
2022-12-20T22:12:06.165Z,16.60
2022-12-20T22:16:28.256Z,14.67
2022-12-20T22:21:09.815Z,14.63
2022-12-20T22:25:35.215Z,15.27
2022-12-20T22:30:19.497Z,16.10
2022-12-20T22:40:31.507Z,17.90
2022-12-20T22:44:59.324Z,17.57
2022-12-20T22:49:50.033Z,19.87
2022-12-20T22:54:00.114Z,20.70
2022-12-20T22:58:29.858Z,18.90
2022-12-20T23:02:52.900Z,18.70
2022-12-20T23:07:06.624Z,19.50
2022-12-20T23:11:41.480Z,20.10
2022-12-20T23:16:09.845Z,19.90
2022-12-20T23:20:42.875Z,21.33
2022-12-20T23:29:29.161Z,23.03
2022-12-20T23:33:51.940Z,20.70
2022-12-20T23:38:18.225Z,21.70
2022-12-20T23:47:05.891Z,22.93
2022-12-20T23:51:41.077Z,22.20
2022-12-20T23:56:26.562Z,21.60
